Time;durP1;ratioP1;P1;durP2;ratioP2;P2;SDS_P1;SDS_P2;PMS_P1;PMS_P2;Temp;Humidity;BMP_temperature;BMP_pressure;BME280_temperature;BME280_humidity;BME280_pressure;Samples;Min_cycle;Max_cycle;Signal;HPM_P1;HPM_P2
2021/11/12 00:04:04;;;;;;;70.67;23.57;;;;;;;0.91;100.00;101605.19;5093719;28;20216;-81
2021/11/12 00:12:21;;;;;;;67.87;22.90;;;;;;;0.96;100.00;101602.75;5062542;28;20244;-78
2021/11/12 00:14:49;;;;;;;67.77;22.70;;;;;;;1.01;100.00;101602.06;5060656;28;20234;-80
2021/11/12 00:17:16;;;;;;;70.20;22.20;;;;;;;1.01;100.00;101593.50;5062602;28;20214;-80
2021/11/12 00:19:42;;;;;;;64.33;23.47;;;;;;;0.98;100.00;101590.81;5060853;28;20232;-78
2021/11/12 00:22:09;;;;;;;62.57;21.80;;;;;;;1.00;100.00;101577.19;5062223;28;20715;-78
2021/11/12 00:24:37;;;;;;;54.80;21.17;;;;;;;0.99;100.00;101580.59;5058189;28;20213;-78
2021/11/12 00:27:06;;;;;;;63.73;21.67;;;;;;;0.96;100.00;101585.63;5063388;28;20203;-78
2021/11/12 00:29:35;;;;;;;55.93;21.40;;;;;;;0.99;100.00;101580.59;5060431;28;20933;-78
2021/11/12 00:32:07;;;;;;;65.27;22.10;;;;;;;0.98;100.00;101578.84;5061842;28;20224;-81
2021/11/12 00:34:50;;;;;;;57.97;21.97;;;;;;;1.02;100.00;101585.81;5061131;28;20210;-79
2021/11/12 00:37:22;;;;;;;52.40;21.10;;;;;;;1.02;100.00;101583.25;5061551;28;20232;-78
2021/11/12 00:39:56;;;;;;;56.97;21.50;;;;;;;1.03;100.00;101581.56;5060663;28;20235;-78
2021/11/12 00:42:26;;;;;;;64.47;21.90;;;;;;;1.04;100.00;101573.00;5062630;28;20226;-79
2021/11/12 00:45:01;;;;;;;62.83;22.53;;;;;;;1.04;100.00;101580.72;5060290;28;20209;-79
2021/11/12 00:47:37;;;;;;;56.13;21.47;;;;;;;1.07;100.00;101585.94;5061095;28;20216;-81
2021/11/12 00:50:23;;;;;;;54.17;21.47;;;;;;;1.06;100.00;101579.94;5060563;28;20232;-81
2021/11/12 00:55:39;;;;;;;60.90;21.47;;;;;;;1.05;100.00;101579.91;5060057;28;20225;-80
2021/11/12 00:58:06;;;;;;;55.23;20.50;;;;;;;1.01;100.00;101578.06;5061077;28;20557;-80
2021/11/12 01:00:33;;;;;;;60.47;22.03;;;;;;;1.03;100.00;101577.28;5061019;28;20202;-81
2021/11/12 01:03:00;;;;;;;52.80;20.37;;;;;;;1.01;100.00;101567.81;5061421;28;20209;-78
2021/11/12 01:05:27;;;;;;;54.13;19.80;;;;;;;1.00;100.00;101574.63;5062012;28;20201;-78
2021/11/12 01:07:53;;;;;;;46.53;20.00;;;;;;;0.89;100.00;101573.44;5061960;28;20940;-79
2021/11/12 01:10:20;;;;;;;46.67;19.23;;;;;;;0.91;100.00;101575.22;5061080;28;20775;-78
2021/11/12 01:12:48;;;;;;;44.30;20.03;;;;;;;0.91;100.00;101571.78;5062009;28;20230;-78
2021/11/12 01:15:16;;;;;;;46.53;19.40;;;;;;;0.90;100.00;101570.94;5062195;28;20214;-78
2021/11/12 01:17:44;;;;;;;45.43;19.17;;;;;;;0.93;100.00;101572.69;5060248;28;20584;-78
2021/11/12 01:20:12;;;;;;;38.67;17.93;;;;;;;0.89;100.00;101576.88;5061358;28;20669;-79
2021/11/12 01:22:39;;;;;;;41.03;17.50;;;;;;;0.93;100.00;101572.69;5062276;28;20232;-78
2021/11/12 01:25:10;;;;;;;45.13;19.07;;;;;;;1.00;100.00;101572.03;5061952;28;20194;-78
2021/11/12 01:27:37;;;;;;;38.53;17.03;;;;;;;0.97;100.00;101578.78;5061830;28;20221;-79
2021/11/12 01:30:06;;;;;;;41.53;18.40;;;;;;;1.02;100.00;101572.09;5061667;28;20203;-78
2021/11/12 01:32:33;;;;;;;40.73;17.77;;;;;;;0.99;100.00;101574.59;5061080;28;20805;-78
2021/11/12 01:35:00;;;;;;;38.53;17.57;;;;;;;0.97;100.00;101577.13;5058622;28;20311;-78
2021/11/12 01:37:28;;;;;;;39.70;17.93;;;;;;;0.99;100.00;101572.91;5062003;28;20246;-79
2021/11/12 01:39:58;;;;;;;41.03;17.07;;;;;;;1.03;100.00;101577.28;5060596;28;20677;-78
2021/11/12 01:42:28;;;;;;;33.33;16.87;;;;;;;1.09;100.00;101579.13;5062027;28;20295;-80
2021/11/12 01:45:00;;;;;;;34.30;16.77;;;;;;;1.05;100.00;101577.31;5063951;28;20866;-81
2021/11/12 01:47:34;;;;;;;34.77;16.83;;;;;;;0.97;100.00;101571.97;5064208;28;20565;-81
2021/11/12 01:50:07;;;;;;;36.10;16.60;;;;;;;1.04;100.00;101568.75;5059028;28;20292;-79
2021/11/12 01:52:36;;;;;;;32.93;16.43;;;;;;;1.03;100.00;101561.00;5064528;28;20223;-79
2021/11/12 01:55:05;;;;;;;32.87;15.90;;;;;;;1.01;100.00;101566.09;5063602;28;20213;-78
2021/11/12 01:57:49;;;;;;;34.67;16.80;;;;;;;1.02;100.00;101560.16;5065343;28;20296;-78
2021/11/12 02:00:19;;;;;;;33.53;16.03;;;;;;;1.02;100.00;101572.09;5063925;28;20321;-78
2021/11/12 02:02:46;;;;;;;31.77;15.60;;;;;;;1.01;100.00;101568.66;5064579;28;20749;-78
2021/11/12 02:05:14;;;;;;;32.47;16.83;;;;;;;1.03;100.00;101566.16;5065117;28;20838;-78
2021/11/12 02:07:41;;;;;;;35.00;17.77;;;;;;;1.06;100.00;101556.81;5064735;28;20203;-79
2021/11/12 02:10:10;;;;;;;34.33;15.57;;;;;;;1.09;100.00;101556.91;5064042;28;20213;-78
2021/11/12 02:12:46;;;;;;;33.87;16.57;;;;;;;1.18;100.00;101564.00;5064126;28;20607;-79
2021/11/12 02:15:13;;;;;;;30.80;15.63;;;;;;;1.19;100.00;101558.03;5064334;28;20883;-78
2021/11/12 02:17:43;;;;;;;37.30;17.60;;;;;;;1.17;100.00;101554.53;5063593;28;20276;-78
2021/11/12 02:20:15;;;;;;;35.63;16.97;;;;;;;1.15;100.00;101550.22;5063924;28;20202;-79
2021/11/12 02:22:45;;;;;;;36.13;16.87;;;;;;;1.17;100.00;101544.28;5062865;28;20218;-79
2021/11/12 02:25:13;;;;;;;35.03;16.87;;;;;;;1.17;100.00;101540.84;5063938;28;20198;-79
2021/11/12 02:27:47;;;;;;;30.17;16.13;;;;;;;1.12;100.00;101540.69;5064248;28;20202;-78
2021/11/12 02:30:21;;;;;;;34.67;16.47;;;;;;;1.17;100.00;101540.84;5064265;28;20233;-79
2021/11/12 02:32:57;;;;;;;34.43;16.60;;;;;;;1.14;100.00;101541.63;5063097;28;20226;-79
2021/11/12 02:35:23;;;;;;;31.20;16.30;;;;;;;1.15;100.00;101539.94;5063339;28;20206;-78
2021/11/12 02:37:52;;;;;;;32.87;16.27;;;;;;;1.18;100.00;101533.19;5061053;28;20222;-79
2021/11/12 02:40:19;;;;;;;32.67;16.20;;;;;;;1.19;100.00;101540.03;5063627;28;20209;-78
2021/11/12 02:42:45;;;;;;;37.40;16.97;;;;;;;1.22;100.00;101540.13;5063443;28;20642;-79
2021/11/12 02:45:11;;;;;;;38.00;16.93;;;;;;;1.26;100.00;101541.94;5063869;28;20213;-78
2021/11/12 02:47:38;;;;;;;32.90;15.93;;;;;;;1.19;100.00;101545.19;5062046;28;20587;-79
2021/11/12 02:50:05;;;;;;;33.60;15.37;;;;;;;1.21;100.00;101542.66;5064635;28;20210;-79
2021/11/12 02:52:31;;;;;;;31.70;16.50;;;;;;;1.20;100.00;101541.78;5063026;28;20258;-79
2021/11/12 02:54:59;;;;;;;34.30;16.07;;;;;;;1.22;100.00;101541.84;5064185;28;20695;-78
2021/11/12 02:57:28;;;;;;;36.83;16.70;;;;;;;1.19;100.00;101536.59;5063246;28;20226;-79
2021/11/12 02:59:55;;;;;;;33.63;15.00;;;;;;;1.17;100.00;101544.28;5062904;28;20221;-78
2021/11/12 03:02:21;;;;;;;32.07;15.53;;;;;;;1.21;100.00;101545.22;5062689;28;20283;-79
2021/11/12 03:04:48;;;;;;;34.20;15.43;;;;;;;1.26;100.00;101536.81;5062457;28;20202;-78
2021/11/12 03:07:14;;;;;;;39.00;16.73;;;;;;;1.32;100.00;101541.25;5063034;28;20661;-81
2021/11/12 03:09:41;;;;;;;35.83;15.87;;;;;;;1.29;100.00;101533.47;5063078;28;20249;-80
2021/11/12 03:12:09;;;;;;;33.60;16.07;;;;;;;1.32;100.00;101524.13;5062875;28;20553;-80
2021/11/12 03:14:36;;;;;;;36.90;16.67;;;;;;;1.35;100.00;101530.19;5063258;28;20201;-80
2021/11/12 03:17:04;;;;;;;35.63;15.97;;;;;;;1.36;100.00;101529.34;5062959;28;20210;-80
2021/11/12 03:19:34;;;;;;;33.73;16.20;;;;;;;1.40;100.00;101532.03;5062665;28;20640;-80
2021/11/12 03:22:03;;;;;;;37.03;16.33;;;;;;;1.42;100.00;101535.50;5063751;28;20269;-80
2021/11/12 03:24:33;;;;;;;37.63;17.10;;;;;;;1.37;100.00;101539.66;5063589;28;20719;-78
2021/11/12 03:27:13;;;;;;;33.50;16.73;;;;;;;1.43;100.00;101539.81;5064390;28;20190;-78
2021/11/12 03:59:58;;;;;;;32.40;14.17;;;;;;;1.63;100.00;101548.03;5063321;28;20203;-78
2021/11/12 04:02:33;;;;;;;30.57;15.20;;;;;;;1.69;100.00;101555.91;5060847;28;20232;-79
2021/11/12 04:05:16;;;;;;;29.57;15.80;;;;;;;1.70;100.00;101551.63;5061967;28;20771;-78
2021/11/12 04:18:49;;;;;;;32.00;15.17;;;;;;;1.77;100.00;101550.94;5062663;28;20213;-78
2021/11/12 04:40:59;;;;;;;31.47;15.33;;;;;;;1.87;100.00;101537.50;5059159;28;20237;-80
2021/11/12 05:03:09;;;;;;;32.03;13.80;;;;;;;1.78;100.00;101531.28;5061430;28;20250;-80
2021/11/12 05:11:16;;;;;;;27.37;14.10;;;;;;;1.79;100.00;101522.72;5059036;28;20226;-80
2021/11/12 05:25:23;;;;;;;27.00;13.23;;;;;;;1.83;100.00;101527.09;5061217;28;20805;-80
2021/11/12 05:26:10;;;;;;;25.70;13.53;;;;;;;1.88;100.00;101518.66;5049144;28;20234;-80
2021/11/12 05:45:15;;;;;;;30.67;15.07;;;;;;;1.88;100.00;101505.81;5060347;28;20583;-80
2021/11/12 05:50:35;;;;;;;25.80;13.77;;;;;;;1.96;100.00;101508.56;5064298;28;20279;-80
2021/11/12 05:55:47;;;;;;;26.53;13.90;;;;;;;2.00;100.00;101517.19;5073967;28;20212;-80
2021/11/12 05:58:15;;;;;;;27.03;13.70;;;;;;;2.01;100.00;101513.81;5062182;28;20230;-80
2021/11/12 06:00:41;;;;;;;24.60;13.47;;;;;;;2.04;100.00;101514.75;5060643;28;20206;-80
2021/11/12 06:03:08;;;;;;;25.33;14.17;;;;;;;2.02;100.00;101511.28;5061791;28;20203;-80
2021/11/12 06:05:34;;;;;;;30.20;14.67;;;;;;;2.04;100.00;101516.44;5061863;28;20230;-80
2021/11/12 06:08:01;;;;;;;32.17;15.07;;;;;;;2.04;100.00;101525.03;5063693;28;20209;-80
2021/11/12 06:10:27;;;;;;;40.23;19.90;;;;;;;2.06;100.00;101510.50;5062552;28;20543;-80
2021/11/12 06:12:53;;;;;;;30.50;14.50;;;;;;;2.03;100.00;101507.00;5063376;28;20544;-80
2021/11/12 06:15:21;;;;;;;29.93;15.40;;;;;;;2.07;100.00;101513.94;5063796;28;20206;-80
2021/11/12 06:17:47;;;;;;;59.93;25.97;;;;;;;2.06;100.00;101512.22;5062487;28;20218;-80
2021/11/12 06:20:15;;;;;;;54.23;25.57;;;;;;;2.10;100.00;101506.31;5063752;28;20218;-80
2021/11/12 06:22:41;;;;;;;44.73;22.70;;;;;;;2.15;100.00;101498.69;5063347;28;20226;-80
2021/11/12 06:25:08;;;;;;;41.57;21.37;;;;;;;2.16;100.00;101501.28;5064388;28;20195;-78
2021/11/12 06:27:35;;;;;;;32.73;18.63;;;;;;;2.21;100.00;101503.97;5062647;28;20202;-80
2021/11/12 06:30:02;;;;;;;38.60;22.77;;;;;;;2.20;100.00;101507.34;5064613;28;20203;-80
2021/11/12 06:32:30;;;;;;;31.20;15.77;;;;;;;2.21;100.00;101499.69;5063260;28;20311;-81
2021/11/12 06:34:56;;;;;;;31.07;15.47;;;;;;;2.23;100.00;101489.41;5065595;28;20966;-80
2021/11/12 06:37:22;;;;;;;30.47;16.40;;;;;;;2.27;100.00;101496.41;5063636;28;20591;-80
2021/11/12 06:39:49;;;;;;;29.73;16.80;;;;;;;2.31;100.00;101499.91;5064475;28;20194;-80
2021/11/12 06:42:18;;;;;;;35.83;17.13;;;;;;;2.27;100.00;101507.53;5064463;28;20244;-81
2021/11/12 06:49:17;;;;;;;30.80;17.53;;;;;;;2.31;100.00;101489.59;5064823;28;20203;-78
2021/11/12 06:50:26;;;;;;;46.20;20.53;;;;;;;2.30;100.00;101496.44;5062622;28;20298;-80
2021/11/12 06:52:54;;;;;;;54.40;24.40;;;;;;;2.28;100.00;101506.69;5063695;28;20230;-80
2021/11/12 06:55:21;;;;;;;35.77;16.83;;;;;;;2.30;100.00;101500.72;5063623;28;20602;-80
2021/11/12 06:57:48;;;;;;;52.10;23.77;;;;;;;2.29;100.00;101505.00;5095936;27;20210;-80
2021/11/12 07:00:17;;;;;;;40.33;21.17;;;;;;;2.31;100.00;101503.34;5061949;28;20565;-78
2021/11/12 07:02:45;;;;;;;32.00;17.80;;;;;;;2.35;100.00;101510.28;5062945;28;20219;-80
2021/11/12 07:05:13;;;;;;;33.17;15.13;;;;;;;2.33;100.00;101517.09;5062187;28;20210;-80
2021/11/12 07:07:40;;;;;;;27.83;14.47;;;;;;;2.30;100.00;101511.88;5062446;28;20199;-80
2021/11/12 07:10:08;;;;;;;29.23;15.33;;;;;;;2.32;100.00;101514.50;5063888;28;20226;-80
2021/11/12 07:12:34;;;;;;;27.07;14.77;;;;;;;2.32;100.00;101515.34;5063866;28;20210;-80
2021/11/12 07:15:00;;;;;;;35.47;16.10;;;;;;;2.36;100.00;101521.47;5064238;28;20745;-80
2021/11/12 07:17:27;;;;;;;29.87;15.37;;;;;;;2.36;100.00;101512.03;5064879;28;20659;-80
2021/11/12 07:19:54;;;;;;;29.77;14.80;;;;;;;2.39;100.00;101511.22;5063469;28;20203;-80
2021/11/12 07:22:21;;;;;;;35.73;16.57;;;;;;;2.42;100.00;101509.56;5063843;28;20249;-78
2021/11/12 07:24:48;;;;;;;33.57;15.73;;;;;;;2.46;100.00;101519.13;5060990;28;20206;-80
2021/11/12 07:27:14;;;;;;;31.90;16.47;;;;;;;2.44;100.00;101510.47;5062378;28;20809;-80
2021/11/12 07:29:44;;;;;;;31.57;16.43;;;;;;;2.48;100.00;101506.28;5063291;28;20763;-80
2021/11/12 07:32:12;;;;;;;35.97;17.00;;;;;;;2.41;100.00;101504.38;5064172;28;20226;-80
2021/11/12 07:34:40;;;;;;;33.63;17.07;;;;;;;2.39;100.00;101498.34;5062642;28;20190;-80
2021/11/12 07:37:10;;;;;;;34.97;16.17;;;;;;;2.44;100.00;101513.03;5063609;28;20233;-80
2021/11/12 07:39:47;;;;;;;37.83;15.57;;;;;;;2.52;100.00;101507.22;5061685;28;20214;-78
2021/11/12 07:42:22;;;;;;;31.70;15.30;;;;;;;2.58;100.00;101508.19;5062923;28;20339;-80
2021/11/12 07:47:33;;;;;;;32.67;15.40;;;;;;;2.71;100.00;101503.28;5063680;28;20198;-80
2021/11/12 07:50:01;;;;;;;31.77;15.43;;;;;;;2.74;100.00;101505.94;5063215;28;20194;-78
2021/11/12 07:52:31;;;;;;;36.40;15.13;;;;;;;2.78;100.00;101503.47;5062497;28;20222;-78
2021/11/12 07:54:59;;;;;;;34.93;16.63;;;;;;;2.79;100.00;101506.88;5062994;28;20214;-80
2021/11/12 07:57:26;;;;;;;37.33;17.37;;;;;;;2.83;100.00;101508.69;5062431;28;20596;-80
2021/11/12 07:59:53;;;;;;;36.90;15.93;;;;;;;2.77;100.00;101512.00;5062557;28;20679;-80
2021/11/12 08:02:20;;;;;;;33.70;15.93;;;;;;;2.81;100.00;101513.84;5061919;28;20225;-80
2021/11/12 08:04:48;;;;;;;27.07;15.47;;;;;;;2.88;100.00;101521.66;5062464;28;20210;-80
2021/11/12 08:07:15;;;;;;;31.97;15.60;;;;;;;2.93;100.00;101513.19;5060011;28;20280;-80
2021/11/12 08:09:50;;;;;;;31.90;15.40;;;;;;;2.95;100.00;101518.38;5061774;28;20199;-80
2021/11/12 08:12:21;;;;;;;26.60;14.30;;;;;;;2.97;100.00;101519.25;5062543;28;20318;-80
2021/11/12 08:14:59;;;;;;;30.33;15.57;;;;;;;2.94;100.00;101521.81;5061790;28;20203;-80
2021/11/12 08:17:33;;;;;;;30.07;14.50;;;;;;;3.01;100.00;101513.34;5060324;28;20287;-80
2021/11/12 08:20:04;;;;;;;30.47;15.63;;;;;;;3.08;100.00;101504.91;5062957;28;20217;-80
2021/11/12 08:22:35;;;;;;;28.57;14.63;;;;;;;3.17;100.00;101509.34;5062448;28;20719;-78
2021/11/12 08:25:13;;;;;;;27.83;14.43;;;;;;;3.27;100.00;101500.91;5060567;28;20289;-78
2021/11/12 08:27:57;;;;;;;30.40;15.30;;;;;;;3.36;100.00;101501.09;5057639;28;20222;-78
2021/11/12 08:30:33;;;;;;;32.33;16.10;;;;;;;3.44;100.00;101501.22;5059763;28;20917;-78
2021/11/12 08:33:12;;;;;;;31.10;15.20;;;;;;;3.46;100.00;101504.69;5063598;28;20224;-78
2021/11/12 08:36:00;;;;;;;28.10;15.13;;;;;;;3.56;100.00;101500.56;5061963;28;20207;-78
2021/11/12 08:38:33;;;;;;;32.00;15.37;;;;;;;3.58;100.00;101493.72;5060845;28;20803;-80
2021/11/12 08:41:07;;;;;;;28.17;14.90;;;;;;;3.63;100.00;101494.66;5059556;28;20687;-80
2021/11/12 08:43:36;;;;;;;24.67;14.77;;;;;;;3.74;100.00;101497.41;5061438;28;20207;-80
2021/11/12 08:46:10;;;;;;;26.63;15.97;;;;;;;3.83;100.00;101482.06;5061492;28;20254;-80
2021/11/12 08:48:41;;;;;;;29.73;15.60;;;;;;;3.85;100.00;101482.97;5060636;28;20200;-80
2021/11/12 08:51:12;;;;;;;26.13;15.57;;;;;;;3.92;100.00;101482.22;5062245;28;20775;-80
2021/11/12 08:53:40;;;;;;;29.63;14.90;;;;;;;4.05;100.00;101487.56;5060426;28;20195;-80
2021/11/12 08:56:12;;;;;;;27.63;14.30;;;;;;;3.99;100.00;101475.44;5077792;28;20754;-80
2021/11/12 08:58:40;;;;;;;23.30;13.17;;;;;;;4.11;100.00;101474.75;5059962;28;20222;-80
2021/11/12 09:01:06;;;;;;;25.97;14.63;;;;;;;4.16;100.00;101481.69;5062612;28;20359;-79
2021/11/12 09:03:33;;;;;;;22.77;13.73;;;;;;;4.22;100.00;101480.94;5062281;28;20206;-78
2021/11/12 09:05:59;;;;;;;26.07;12.73;;;;;;;4.31;100.00;101480.16;5062882;28;20221;-78
2021/11/12 09:08:26;;;;;;;24.90;13.77;;;;;;;4.34;100.00;101486.28;5062157;28;20750;-78
2021/11/12 09:10:53;;;;;;;21.20;13.57;;;;;;;4.31;100.00;101472.41;5061567;28;20240;-78
2021/11/12 09:13:23;;;;;;;23.50;12.70;;;;;;;4.31;100.00;101467.25;5062774;28;20297;-78
2021/11/12 09:15:52;;;;;;;21.33;12.37;;;;;;;4.24;100.00;101468.91;5062339;28;20202;-78
2021/11/12 09:18:22;;;;;;;27.70;13.93;;;;;;;4.34;100.00;101459.56;5062158;28;20233;-78
2021/11/12 09:20:49;;;;;;;22.87;13.20;;;;;;;4.39;100.00;101455.31;5060638;28;20246;-79
2021/11/12 09:23:16;;;;;;;29.13;14.23;;;;;;;4.39;100.00;101464.78;5062543;28;20221;-78
2021/11/12 09:25:43;;;;;;;21.63;12.90;;;;;;;4.45;100.00;101462.28;5062025;28;20220;-78
2021/11/12 09:28:10;;;;;;;25.40;13.23;;;;;;;4.53;100.00;101464.09;5062329;28;20723;-78
2021/11/12 09:30:38;;;;;;;23.10;13.00;;;;;;;4.55;100.00;101457.22;5058358;28;20199;-80
2021/11/12 09:33:06;;;;;;;25.63;13.60;;;;;;;4.61;100.00;101461.63;5061055;28;20899;-80
2021/11/12 09:35:33;;;;;;;25.53;14.47;;;;;;;4.68;100.00;101458.28;5061539;28;20203;-80
2021/11/12 09:37:59;;;;;;;25.43;15.20;;;;;;;4.81;100.00;101453.25;5058471;28;20215;-80
2021/11/12 09:40:26;;;;;;;23.70;13.63;;;;;;;4.74;100.00;101450.56;5057425;28;20213;-80
2021/11/12 09:42:53;;;;;;;27.60;14.40;;;;;;;4.78;100.00;101445.44;5057856;28;20222;-78
2021/11/12 09:45:20;;;;;;;26.80;14.20;;;;;;;4.83;100.00;101438.59;5060478;28;20600;-80
2021/11/12 09:47:51;;;;;;;24.73;13.67;;;;;;;4.97;100.00;101436.16;5060670;28;20244;-81
2021/11/12 09:50:22;;;;;;;25.40;13.90;;;;;;;5.00;100.00;101431.03;5060563;28;20202;-80
2021/11/12 09:52:49;;;;;;;27.40;14.90;;;;;;;5.08;100.00;101432.84;5062256;28;20215;-80
2021/11/12 09:55:16;;;;;;;28.07;14.87;;;;;;;5.22;100.00;101424.34;5059495;28;20256;-80
2021/11/12 09:57:43;;;;;;;26.67;14.40;;;;;;;5.32;100.00;101420.97;5061295;28;20313;-78
2021/11/12 10:00:13;;;;;;;28.20;15.20;;;;;;;5.40;100.00;101424.50;5059320;28;20799;-78
2021/11/12 10:02:42;;;;;;;27.93;13.53;;;;;;;5.48;100.00;101422.81;5062367;28;20231;-79
2021/11/12 10:05:12;;;;;;;27.57;14.57;;;;;;;5.61;100.00;101422.91;5063637;28;20238;-80
2021/11/12 10:07:39;;;;;;;28.60;14.33;;;;;;;5.73;100.00;101412.63;5063391;28;20202;-81
2021/11/12 10:10:08;;;;;;;26.47;14.60;;;;;;;5.83;100.00;101409.25;5065113;28;20252;-80
2021/11/12 10:12:41;;;;;;;29.07;15.37;;;;;;;5.94;100.00;101398.09;5064245;28;20242;-79
2021/11/12 10:15:11;;;;;;;26.60;14.50;;;;;;;6.06;100.00;101387.84;5065930;28;20197;-79
2021/11/12 10:17:37;;;;;;;26.23;12.97;;;;;;;6.02;100.00;101389.56;5063233;28;20237;-79
2021/11/12 10:20:08;;;;;;;23.67;13.57;;;;;;;6.00;100.00;101387.81;5064712;28;20699;-78
2021/11/12 10:22:38;;;;;;;22.57;12.37;;;;;;;5.99;100.00;101381.75;5057955;28;20224;-80
2021/11/12 10:25:07;;;;;;;22.90;13.53;;;;;;;6.01;100.00;101380.03;5064370;28;20202;-78
2021/11/12 10:27:34;;;;;;;23.57;13.23;;;;;;;5.96;100.00;101373.13;5062975;28;20230;-80
2021/11/12 10:30:08;;;;;;;26.37;13.87;;;;;;;5.97;100.00;101370.53;5063589;28;20742;-79
2021/11/12 10:32:36;;;;;;;25.57;14.03;;;;;;;5.98;100.00;101380.06;5060555;28;21480;-78
2021/11/12 10:35:08;;;;;;;26.70;13.23;;;;;;;6.00;100.00;101374.88;5062052;28;20209;-79
2021/11/12 10:37:38;;;;;;;24.53;12.87;;;;;;;6.02;100.00;101368.00;5061253;28;20211;-79
2021/11/12 10:40:08;;;;;;;26.10;13.43;;;;;;;6.10;100.00;101363.69;5063252;28;20289;-79
2021/11/12 10:42:37;;;;;;;27.03;13.60;;;;;;;6.10;100.00;101361.09;5062725;28;20221;-80
2021/11/12 10:45:07;;;;;;;23.57;13.03;;;;;;;6.12;100.00;101346.47;5066245;28;20259;-79
2021/11/12 10:47:37;;;;;;;27.37;13.90;;;;;;;6.10;100.00;101347.28;5063896;28;20730;-81
2021/11/12 10:50:05;;;;;;;27.23;13.13;;;;;;;6.07;100.00;101341.25;5061013;28;20914;-79
2021/11/12 10:52:33;;;;;;;28.73;14.67;;;;;;;6.07;100.00;101330.91;5065401;28;20329;-79
2021/11/12 10:55:06;;;;;;;29.07;14.40;;;;;;;6.07;100.00;101319.69;5064386;28;20754;-80
2021/11/12 10:57:35;;;;;;;23.00;13.50;;;;;;;6.02;100.00;101321.38;5064082;28;20206;-80
2021/11/12 11:00:15;;;;;;;26.67;13.50;;;;;;;5.98;100.00;101323.09;5059130;28;20223;-79
2021/11/12 11:02:43;;;;;;;26.60;13.73;;;;;;;5.95;100.00;101317.00;5064772;28;20223;-79
2021/11/12 11:05:12;;;;;;;31.70;16.87;;;;;;;5.94;100.00;101325.63;5064209;28;20569;-79
2021/11/12 11:07:39;;;;;;;26.47;14.23;;;;;;;5.93;100.00;101309.25;5064899;28;20577;-78
2021/11/12 11:10:21;;;;;;;26.97;13.57;;;;;;;5.93;100.00;101298.88;5064479;28;20217;-79
2021/11/12 11:12:48;;;;;;;32.13;15.90;;;;;;;5.94;100.00;101302.31;5062916;28;20280;-79
2021/11/12 11:15:21;;;;;;;26.47;15.03;;;;;;;5.95;100.00;101296.31;5061811;28;20230;-79
2021/11/12 11:18:05;;;;;;;28.30;15.47;;;;;;;5.95;100.00;101289.41;5063335;28;20210;-79
2021/11/12 11:20:33;;;;;;;25.97;14.53;;;;;;;5.95;100.00;101281.63;5064000;28;20210;-78
2021/11/12 11:23:00;;;;;;;30.73;16.27;;;;;;;5.94;100.00;101272.13;5062461;28;20739;-78
2021/11/12 11:25:29;;;;;;;31.23;15.90;;;;;;;5.97;100.00;101263.56;5061824;28;20285;-79
2021/11/12 11:27:58;;;;;;;32.50;15.93;;;;;;;5.93;100.00;101272.13;5062563;28;20210;-81
2021/11/12 11:30:25;;;;;;;29.53;15.40;;;;;;;5.91;100.00;101264.38;5060654;28;20210;-81
2021/11/12 11:32:52;;;;;;;26.87;15.10;;;;;;;5.90;100.00;101265.22;5060955;28;20226;-81
2021/11/12 11:35:20;;;;;;;27.63;15.40;;;;;;;5.92;100.00;101262.63;5061591;28;20206;-79
2021/11/12 11:37:52;;;;;;;28.33;14.97;;;;;;;5.88;100.00;101254.84;5063431;28;20293;-78
2021/11/12 11:40:21;;;;;;;28.87;16.03;;;;;;;5.92;100.00;101253.13;5061240;28;20245;-81
2021/11/12 11:42:48;;;;;;;28.90;15.50;;;;;;;5.91;100.00;101250.53;5060487;28;20226;-79
2021/11/12 11:45:16;;;;;;;29.97;15.53;;;;;;;5.88;100.00;101241.06;5063737;28;20833;-78
2021/11/12 11:47:44;;;;;;;31.73;15.20;;;;;;;5.89;100.00;101235.00;5060910;28;20302;-79
2021/11/12 11:50:26;;;;;;;31.03;16.17;;;;;;;5.92;100.00;101223.81;5062274;28;20400;-78
2021/11/12 11:52:53;;;;;;;30.17;15.97;;;;;;;5.90;100.00;101218.63;5056270;28;20606;-79
2021/11/12 11:55:35;;;;;;;29.90;16.50;;;;;;;5.97;100.00;101214.38;5066889;28;20547;-78
2021/11/12 11:58:34;;;;;;;29.47;15.23;;;;;;;5.99;100.00;101217.81;5065909;28;20202;-80
2021/11/12 12:01:12;;;;;;;28.70;14.73;;;;;;;6.02;100.00;101230.78;5063535;28;20683;-80
2021/11/12 12:03:39;;;;;;;30.70;15.23;;;;;;;6.05;100.00;101235.94;5063463;28;20194;-80
2021/11/12 12:06:07;;;;;;;30.17;16.13;;;;;;;6.06;100.00;101233.38;5064172;28;20206;-81
2021/11/12 12:08:34;;;;;;;27.57;14.97;;;;;;;6.05;100.00;101225.59;5066173;28;20736;-82
2021/11/12 12:11:23;;;;;;;32.90;15.93;;;;;;;6.09;100.00;101217.00;5060579;28;20222;-80
2021/11/12 12:14:16;;;;;;;30.80;14.27;;;;;;;6.10;100.00;101213.53;5055532;28;21029;-78
2021/11/12 12:16:43;;;;;;;59.83;18.00;;;;;;;6.13;100.00;101207.50;5062670;28;20221;-81
2021/11/12 12:19:41;;;;;;;32.20;15.17;;;;;;;6.16;100.00;101200.59;5063697;28;20206;-81
2021/11/12 12:32:18;;;;;;;31.67;16.37;;;;;;;6.30;100.00;101205.78;5062349;28;20662;-81
2021/11/12 12:37:18;;;;;;;29.33;14.63;;;;;;;6.34;100.00;101202.34;5062790;28;20267;-80
2021/11/12 13:22:39;;;;;;;33.20;17.70;;;;;;;6.40;97.27;101145.38;5039858;28;20882;-80
2021/11/12 13:25:09;;;;;;;36.70;17.00;;;;;;;6.46;96.16;101143.63;5062629;28;20796;-81
2021/11/12 13:27:35;;;;;;;34.10;16.97;;;;;;;6.46;96.04;101136.72;5059536;28;20727;-81
2021/11/12 13:30:02;;;;;;;30.63;16.43;;;;;;;6.46;95.16;101143.63;5059793;28;20585;-80
2021/11/12 13:32:34;;;;;;;38.57;17.97;;;;;;;6.44;95.61;101139.31;5052268;28;20897;-81
2021/11/12 13:35:01;;;;;;;35.13;16.57;;;;;;;6.39;96.09;101132.41;5057079;28;20249;-81
2021/11/12 13:37:28;;;;;;;32.63;17.17;;;;;;;6.43;96.58;101134.13;5065372;28;20986;-81
2021/11/12 13:40:05;;;;;;;50.13;19.30;;;;;;;6.34;97.29;101127.22;5061564;28;20226;-81
2021/11/12 13:42:39;;;;;;;34.67;17.33;;;;;;;6.29;97.69;101123.78;5064550;28;20325;-80
2021/11/12 13:45:13;;;;;;;33.47;17.37;;;;;;;6.30;96.48;101115.16;5063237;28;20210;-81
2021/11/12 13:47:40;;;;;;;35.03;16.87;;;;;;;6.28;97.75;101110.81;5062700;28;20225;-81
2021/11/12 13:50:08;;;;;;;33.60;17.20;;;;;;;6.23;98.41;101109.09;5063723;28;20198;-81
2021/11/12 13:52:34;;;;;;;33.90;17.57;;;;;;;6.19;98.50;101102.22;5064652;28;20226;-81
2021/11/12 13:55:07;;;;;;;39.17;17.77;;;;;;;6.17;98.21;101103.91;5064578;28;20242;-81
2021/11/12 13:57:35;;;;;;;34.97;17.30;;;;;;;6.13;98.65;101102.19;5064285;28;20268;-81
2021/11/12 14:00:05;;;;;;;36.37;16.60;;;;;;;6.14;98.26;101106.53;5062458;28;20240;-81
2021/11/12 14:02:52;;;;;;;33.77;16.97;;;;;;;6.12;98.14;101104.78;5065069;28;20226;-81
2021/11/12 14:05:19;;;;;;;33.87;17.17;;;;;;;6.07;98.74;101103.06;5064337;28;20202;-81
2021/11/12 14:07:45;;;;;;;35.23;17.70;;;;;;;6.01;99.08;101100.47;5065760;28;20203;-81
2021/11/12 14:10:16;;;;;;;35.83;17.50;;;;;;;5.98;98.43;101109.94;5065297;28;20210;-79
2021/11/12 14:12:53;;;;;;;33.20;16.87;;;;;;;6.00;98.42;101116.03;5062758;28;20226;-79
2021/11/12 14:15:25;;;;;;;33.33;17.73;;;;;;;5.94;99.26;101103.88;5064372;28;20206;-79
2021/11/12 14:18:09;;;;;;;32.70;16.33;;;;;;;5.87;100.00;101110.81;5061255;28;20272;-79
2021/11/12 14:20:36;;;;;;;35.60;17.43;;;;;;;5.80;100.00;101118.53;5062665;28;20783;-79
2021/11/12 14:23:09;;;;;;;38.47;18.67;;;;;;;5.76;100.00;101104.72;5059443;28;20210;-78
2021/11/12 14:26:07;;;;;;;39.00;18.50;;;;;;;5.75;100.00;101096.97;5061809;28;20654;-79
2021/11/12 14:28:41;;;;;;;38.33;18.10;;;;;;;5.66;100.00;101090.94;5061529;28;20205;-78
2021/11/12 14:31:19;;;;;;;34.00;17.10;;;;;;;5.59;100.00;101091.75;5059782;28;20236;-78
2021/11/12 14:34:04;;;;;;;40.17;18.20;;;;;;;5.53;100.00;101083.16;5060918;28;20213;-79